createdAt,value
2023-03-29T00:01:42.496Z,15.47
2023-03-29T00:04:10.295Z,15.47
2023-03-29T00:06:37.879Z,15.47
2023-03-29T00:09:05.963Z,15.47
2023-03-29T00:11:32.942Z,15.45
2023-03-29T00:13:59.487Z,15.44
2023-03-29T00:16:26.208Z,15.42
2023-03-29T00:18:52.808Z,15.42
2023-03-29T00:21:19.371Z,15.42
2023-03-29T00:23:46.043Z,15.42
2023-03-29T00:26:12.785Z,15.41
2023-03-29T00:28:39.307Z,15.40
2023-03-29T00:31:14.572Z,15.38
2023-03-29T00:33:42.285Z,15.38
2023-03-29T00:36:10.698Z,15.38
2023-03-29T00:38:37.624Z,15.38
2023-03-29T00:41:06.560Z,15.39
2023-03-29T00:43:57.107Z,15.38
2023-03-29T00:46:26.021Z,15.38
2023-03-29T00:48:57.013Z,15.38
2023-03-29T00:51:26.846Z,15.39
2023-03-29T00:53:59.146Z,15.38
2023-03-29T00:56:34.836Z,15.37
2023-03-29T00:59:13.840Z,15.38
2023-03-29T01:01:55.144Z,15.39
2023-03-29T01:04:45.475Z,15.39
2023-03-29T01:07:18.669Z,15.40
2023-03-29T01:09:50.941Z,15.39
2023-03-29T01:12:22.919Z,15.40
2023-03-29T01:14:56.542Z,15.41
2023-03-29T01:17:25.539Z,15.40
2023-03-29T01:20:13.688Z,15.41
2023-03-29T01:23:26.981Z,15.39
2023-03-29T01:26:25.017Z,15.36
2023-03-29T01:28:57.639Z,15.35
2023-03-29T01:31:32.568Z,15.34
2023-03-29T01:34:07.383Z,15.32
2023-03-29T01:36:50.962Z,15.29
2023-03-29T01:39:18.948Z,15.29
2023-03-29T01:42:14.318Z,15.29
2023-03-29T01:44:56.665Z,15.27
2023-03-29T01:48:01.802Z,15.26
2023-03-29T01:50:54.332Z,15.25
2023-03-29T01:53:30.504Z,15.24
2023-03-29T01:56:02.377Z,15.23
2023-03-29T01:58:34.036Z,15.20
2023-03-29T02:01:05.802Z,15.21
2023-03-29T02:03:34.742Z,15.20
2023-03-29T02:06:03.154Z,15.18
2023-03-29T02:08:31.008Z,15.19
2023-03-29T02:10:57.948Z,15.16
2023-03-29T02:13:24.626Z,15.19
2023-03-29T02:15:51.230Z,15.14
2023-03-29T02:18:19.850Z,15.19
2023-03-29T02:20:50.797Z,15.14
2023-03-29T02:23:21.328Z,15.17
2023-03-29T02:25:50.901Z,15.16
2023-03-29T02:28:17.596Z,15.13
2023-03-29T02:30:48.453Z,15.12
2023-03-29T02:33:25.247Z,15.14
2023-03-29T02:35:56.764Z,15.12
2023-03-29T02:38:27.762Z,15.13
2023-03-29T02:40:57.045Z,15.10
2023-03-29T02:43:25.977Z,15.12
2023-03-29T02:45:53.270Z,15.10
2023-03-29T02:48:23.660Z,15.10
2023-03-29T02:50:56.291Z,15.08
2023-03-29T02:53:29.052Z,15.07
2023-03-29T02:55:56.079Z,15.09
2023-03-29T02:58:26.543Z,15.06
2023-03-29T03:00:53.566Z,15.10
2023-03-29T03:03:20.805Z,15.08
2023-03-29T03:05:47.774Z,15.07
2023-03-29T03:08:14.551Z,15.07
2023-03-29T03:10:41.551Z,15.07
2023-03-29T03:13:08.168Z,15.08
2023-03-29T03:15:35.927Z,15.07
2023-03-29T03:18:03.692Z,15.06
2023-03-29T03:20:31.230Z,15.04
2023-03-29T03:22:58.579Z,15.02
2023-03-29T03:25:25.153Z,15.03
2023-03-29T03:27:51.808Z,15.05
2023-03-29T03:30:18.959Z,15.04
2023-03-29T03:32:45.620Z,15.05
2023-03-29T03:35:12.737Z,15.03
2023-03-29T03:37:40.119Z,15.03
2023-03-29T03:40:12.085Z,15.04
2023-03-29T03:42:40.211Z,15.04
2023-03-29T03:45:08.528Z,15.01
2023-03-29T03:47:37.442Z,14.92
2023-03-29T03:50:06.282Z,15.03
2023-03-29T03:52:32.850Z,15.03
2023-03-29T03:54:59.421Z,15.04
2023-03-29T03:57:26.033Z,15.02
2023-03-29T03:59:52.982Z,15.03
2023-03-29T04:02:20.662Z,14.97
2023-03-29T04:04:47.707Z,15.03
2023-03-29T04:07:14.439Z,15.03
2023-03-29T04:09:41.079Z,15.03
2023-03-29T04:12:07.773Z,15.02
2023-03-29T04:14:34.297Z,15.01
2023-03-29T04:17:01.448Z,15.03
2023-03-29T04:19:28.193Z,14.99
2023-03-29T04:21:54.729Z,15.00
2023-03-29T04:24:23.086Z,15.01
2023-03-29T04:26:49.643Z,15.00
2023-03-29T04:29:16.196Z,15.01
2023-03-29T04:31:42.811Z,14.98
2023-03-29T04:34:09.421Z,15.00
2023-03-29T04:36:36.044Z,14.94
2023-03-29T04:39:04.575Z,14.97
2023-03-29T04:41:32.696Z,14.99
2023-03-29T04:43:59.314Z,15.00
2023-03-29T04:46:26.590Z,15.03
2023-03-29T04:48:54.062Z,15.01
2023-03-29T04:51:22.370Z,15.03
2023-03-29T04:53:52.846Z,15.00
2023-03-29T04:56:19.391Z,15.01
2023-03-29T04:58:45.973Z,15.02
2023-03-29T05:01:12.554Z,15.03
2023-03-29T05:03:39.551Z,15.01
2023-03-29T05:06:08.793Z,15.01
2023-03-29T05:08:40.087Z,15.03
2023-03-29T05:11:08.390Z,15.02
2023-03-29T05:13:35.533Z,15.03
2023-03-29T05:16:02.599Z,15.03
2023-03-29T05:18:30.046Z,15.05
2023-03-29T05:20:57.928Z,15.03
2023-03-29T05:23:25.789Z,15.09
2023-03-29T05:25:56.052Z,15.11
2023-03-29T05:28:22.971Z,15.10
2023-03-29T05:31:00.698Z,15.14
2023-03-29T05:33:27.703Z,15.15
2023-03-29T05:36:06.644Z,15.16
2023-03-29T05:38:33.411Z,15.15
2023-03-29T05:41:00.860Z,15.18
2023-03-29T05:43:28.048Z,15.16
2023-03-29T05:45:55.920Z,15.15
2023-03-29T05:48:23.762Z,15.10
2023-03-29T05:50:53.503Z,15.21
2023-03-29T05:53:21.982Z,15.18
2023-03-29T05:55:48.966Z,15.09
2023-03-29T05:58:17.989Z,15.21
2023-03-29T06:00:44.867Z,15.20
2023-03-29T06:03:21.094Z,15.23
2023-03-29T06:05:56.918Z,15.23
2023-03-29T06:08:23.765Z,15.21
2023-03-29T06:10:50.326Z,15.24
2023-03-29T06:13:17.372Z,15.23
2023-03-29T06:15:43.939Z,15.20
2023-03-29T06:18:10.920Z,15.26
2023-03-29T06:20:37.533Z,15.25
2023-03-29T06:23:04.070Z,15.24
2023-03-29T06:25:30.610Z,15.25
2023-03-29T06:27:57.547Z,15.28
2023-03-29T06:30:24.061Z,15.30
2023-03-29T06:32:50.757Z,15.28
2023-03-29T06:35:18.390Z,15.26
2023-03-29T06:37:50.026Z,15.30
2023-03-29T06:40:21.319Z,15.29
2023-03-29T06:42:48.577Z,15.29
2023-03-29T06:45:16.172Z,15.32
2023-03-29T06:47:42.788Z,15.31
2023-03-29T06:50:10.224Z,15.31
2023-03-29T06:52:36.832Z,15.32
2023-03-29T06:55:07.542Z,15.31
2023-03-29T06:57:34.289Z,15.32
2023-03-29T07:00:01.554Z,15.36
2023-03-29T07:02:29.063Z,15.34
2023-03-29T07:04:56.259Z,15.31
2023-03-29T07:07:24.240Z,15.29
2023-03-29T07:09:54.600Z,15.29
2023-03-29T07:12:23.698Z,15.28
2023-03-29T07:14:50.344Z,15.29
2023-03-29T07:17:16.861Z,15.20
2023-03-29T07:19:43.937Z,15.30
2023-03-29T07:22:11.307Z,15.25
2023-03-29T07:24:37.904Z,15.26
2023-03-29T07:27:05.026Z,15.30
2023-03-29T07:29:32.332Z,15.27
2023-03-29T07:31:59.090Z,15.28
2023-03-29T07:34:25.796Z,15.26
2023-03-29T07:36:52.582Z,15.27
2023-03-29T07:39:19.239Z,15.30
2023-03-29T07:41:45.949Z,15.29
2023-03-29T07:44:12.504Z,15.30
2023-03-29T07:46:39.224Z,15.31
2023-03-29T07:49:07.438Z,15.31
2023-03-29T07:51:34.153Z,15.33
2023-03-29T07:54:00.753Z,15.31
2023-03-29T07:56:27.338Z,15.31
2023-03-29T07:58:53.931Z,15.32
2023-03-29T08:01:20.677Z,15.33
2023-03-29T08:03:48.086Z,15.30
2023-03-29T08:06:16.215Z,15.33
2023-03-29T08:08:42.747Z,15.33
2023-03-29T08:11:10.081Z,15.33
2023-03-29T08:13:37.072Z,15.37
2023-03-29T08:16:04.362Z,15.34
2023-03-29T08:18:32.825Z,15.38
2023-03-29T08:21:01.305Z,15.42
2023-03-29T08:23:28.010Z,15.40
2023-03-29T08:25:54.543Z,15.45
2023-03-29T08:28:21.077Z,15.45
2023-03-29T08:30:48.162Z,15.46
2023-03-29T08:33:14.841Z,15.48
2023-03-29T08:35:41.685Z,15.50
2023-03-29T08:38:08.448Z,15.51
2023-03-29T08:40:35.339Z,15.50
2023-03-29T08:43:19.984Z,15.53
2023-03-29T08:45:52.721Z,15.54
2023-03-29T08:48:29.958Z,15.54
2023-03-29T08:51:02.617Z,15.56
2023-03-29T08:53:45.138Z,15.56
2023-03-29T08:56:19.733Z,15.51
2023-03-29T08:58:48.125Z,15.61
2023-03-29T09:01:14.777Z,15.61
2023-03-29T09:03:48.538Z,15.63
2023-03-29T09:06:18.822Z,15.65
2023-03-29T09:08:47.835Z,15.63
2023-03-29T09:11:29.945Z,15.67
2023-03-29T09:14:15.630Z,15.69
2023-03-29T09:16:50.356Z,15.71
2023-03-29T09:19:17.045Z,15.73
2023-03-29T09:21:46.744Z,15.74
2023-03-29T09:24:42.840Z,15.75
2023-03-29T09:27:31.364Z,15.76
2023-03-29T09:30:10.100Z,15.76
2023-03-29T09:32:44.270Z,15.75
2023-03-29T09:35:32.608Z,15.77
2023-03-29T09:37:59.331Z,15.77
2023-03-29T09:40:41.434Z,15.77
2023-03-29T09:43:15.439Z,15.79
2023-03-29T09:45:42.800Z,15.78
2023-03-29T09:48:14.910Z,15.82
2023-03-29T09:50:46.561Z,15.84
2023-03-29T09:53:15.887Z,15.85
2023-03-29T09:55:45.002Z,15.88
2023-03-29T09:58:14.831Z,15.88
2023-03-29T10:00:41.891Z,15.86
2023-03-29T10:03:10.624Z,15.94
2023-03-29T10:05:37.991Z,15.94
2023-03-29T10:08:19.472Z,15.98
2023-03-29T10:10:47.478Z,15.93
2023-03-29T10:13:22.856Z,15.99
2023-03-29T10:16:10.456Z,15.95
2023-03-29T10:18:42.499Z,15.98
2023-03-29T10:21:12.979Z,16.00
2023-03-29T10:23:39.862Z,15.96
2023-03-29T10:26:15.001Z,16.01
2023-03-29T10:28:41.782Z,15.97
2023-03-29T10:31:18.133Z,16.02
2023-03-29T10:33:55.581Z,16.04
2023-03-29T10:36:23.870Z,16.01
2023-03-29T10:38:52.830Z,16.02
2023-03-29T10:41:21.756Z,16.07
2023-03-29T10:43:51.154Z,16.04
2023-03-29T10:46:29.042Z,16.06
2023-03-29T10:48:58.702Z,16.02
2023-03-29T10:51:30.080Z,16.09
2023-03-29T10:53:59.114Z,16.11
2023-03-29T10:56:41.691Z,16.11
2023-03-29T10:59:23.324Z,16.12
2023-03-29T11:02:04.857Z,16.13
2023-03-29T11:04:56.777Z,16.14
2023-03-29T11:07:28.786Z,16.13
2023-03-29T11:10:05.734Z,16.14
2023-03-29T11:13:11.884Z,16.04
2023-03-29T11:15:41.614Z,16.15
2023-03-29T11:18:28.035Z,16.15
2023-03-29T11:21:02.175Z,16.13
2023-03-29T11:23:53.291Z,16.17
2023-03-29T11:26:27.104Z,16.20
2023-03-29T11:29:07.290Z,16.21
2023-03-29T11:31:45.509Z,16.22
2023-03-29T11:34:50.060Z,16.24
2023-03-29T11:37:28.557Z,16.22
2023-03-29T11:40:50.105Z,16.25
2023-03-29T11:43:27.863Z,16.24
2023-03-29T11:46:17.860Z,16.25
2023-03-29T11:49:23.152Z,16.25
2023-03-29T11:51:56.900Z,16.25
2023-03-29T11:54:49.495Z,16.28
2023-03-29T11:57:23.619Z,16.27
2023-03-29T11:59:59.708Z,16.21
2023-03-29T12:02:42.429Z,16.30
2023-03-29T12:05:20.228Z,16.30
2023-03-29T12:07:56.827Z,16.32
2023-03-29T12:10:29.157Z,16.25
2023-03-29T12:13:18.955Z,16.32
2023-03-29T12:16:01.314Z,16.33
2023-03-29T12:18:33.959Z,16.35
2023-03-29T12:21:06.946Z,16.32
2023-03-29T12:23:34.089Z,16.30
2023-03-29T12:26:10.772Z,16.37
2023-03-29T12:29:06.781Z,16.36
2023-03-29T12:31:55.278Z,16.38
2023-03-29T12:34:29.707Z,16.37
2023-03-29T12:37:27.759Z,16.39
2023-03-29T12:39:54.526Z,16.38
2023-03-29T12:42:23.743Z,16.40
2023-03-29T12:44:57.546Z,16.32
2023-03-29T12:47:27.844Z,16.39
2023-03-29T12:49:56.678Z,16.38
2023-03-29T12:52:30.040Z,16.42
2023-03-29T12:54:59.271Z,16.42
2023-03-29T12:57:29.013Z,16.42
2023-03-29T12:59:55.720Z,16.42
2023-03-29T13:02:22.548Z,16.41
2023-03-29T13:04:56.438Z,16.40
2023-03-29T13:07:23.061Z,16.42
2023-03-29T13:09:55.152Z,16.42
2023-03-29T13:12:32.984Z,16.43
2023-03-29T13:15:04.144Z,16.43
2023-03-29T13:18:02.622Z,16.44
2023-03-29T13:20:39.228Z,16.40
2023-03-29T13:23:31.820Z,16.45
2023-03-29T13:26:42.778Z,16.45
2023-03-29T13:29:38.812Z,16.45
2023-03-29T13:32:27.563Z,16.45
2023-03-29T13:35:06.275Z,16.44
2023-03-29T13:38:00.820Z,16.46
2023-03-29T13:40:30.160Z,16.45
2023-03-29T13:43:19.693Z,16.46
2023-03-29T13:46:11.794Z,16.45
2023-03-29T13:48:38.363Z,16.48
2023-03-29T13:51:23.419Z,16.49
2023-03-29T13:53:55.827Z,16.44
2023-03-29T13:56:38.638Z,16.48
2023-03-29T13:59:15.856Z,16.48
2023-03-29T14:01:50.578Z,16.44
2023-03-29T14:04:24.544Z,16.44
2023-03-29T14:06:56.848Z,16.40
2023-03-29T14:09:30.872Z,16.48
2023-03-29T14:12:01.461Z,16.48
2023-03-29T14:14:32.147Z,16.48
2023-03-29T14:17:01.993Z,16.45
2023-03-29T14:19:36.140Z,16.50
2023-03-29T14:22:08.166Z,16.48
2023-03-29T14:24:38.855Z,16.46
2023-03-29T14:27:10.168Z,16.52
2023-03-29T14:29:37.017Z,16.51
2023-03-29T14:32:16.258Z,16.53
2023-03-29T14:34:43.644Z,16.52
2023-03-29T14:37:12.722Z,16.53
2023-03-29T14:39:41.080Z,16.54
2023-03-29T14:42:22.313Z,16.55
2023-03-29T14:44:50.464Z,16.55
2023-03-29T14:47:31.263Z,16.57
2023-03-29T14:50:00.939Z,16.55
2023-03-29T14:52:31.929Z,16.56
2023-03-29T14:55:01.892Z,16.57
2023-03-29T14:57:35.628Z,16.55
2023-03-29T15:00:17.282Z,16.56
2023-03-29T15:03:01.010Z,16.57
2023-03-29T15:05:33.233Z,16.56
2023-03-29T15:08:01.676Z,16.56
2023-03-29T15:10:32.760Z,16.54
2023-03-29T15:13:03.580Z,16.58
2023-03-29T15:15:33.160Z,16.57
2023-03-29T15:18:00.876Z,16.53
2023-03-29T15:20:31.651Z,16.54
2023-03-29T15:23:20.715Z,16.57
2023-03-29T15:25:56.853Z,16.57
2023-03-29T15:28:32.682Z,16.59
2023-03-29T15:33:39.240Z,16.59
2023-03-29T15:36:08.634Z,16.56
2023-03-29T15:38:44.182Z,16.59
2023-03-29T15:41:13.646Z,16.60
2023-03-29T15:43:41.273Z,16.58
2023-03-29T15:46:08.237Z,16.60
2023-03-29T15:48:35.032Z,16.61
2023-03-29T15:51:06.450Z,16.60
2023-03-29T15:53:33.844Z,16.62
2023-03-29T15:56:02.556Z,16.62
2023-03-29T15:58:31.697Z,16.62
2023-03-29T16:01:11.249Z,16.60
2023-03-29T16:03:41.775Z,16.60
2023-03-29T16:06:12.446Z,16.65
2023-03-29T16:08:39.070Z,16.64
2023-03-29T16:11:06.835Z,16.60
2023-03-29T16:13:33.406Z,16.62
2023-03-29T16:16:00.008Z,16.61
2023-03-29T16:18:27.215Z,16.55
2023-03-29T16:20:54.464Z,16.60
2023-03-29T16:23:21.068Z,16.62
2023-03-29T16:25:47.787Z,16.62
2023-03-29T16:28:14.341Z,16.62
2023-03-29T16:30:41.106Z,16.54
2023-03-29T16:33:08.743Z,16.63
2023-03-29T16:35:40.120Z,16.62
2023-03-29T16:38:07.991Z,16.65
2023-03-29T16:40:35.949Z,16.62
2023-03-29T16:43:02.879Z,16.65
2023-03-29T16:45:29.653Z,16.63
2023-03-29T16:47:56.918Z,16.65
2023-03-29T16:50:23.802Z,16.65
2023-03-29T16:52:52.636Z,16.64
2023-03-29T16:55:19.460Z,16.64
2023-03-29T16:57:47.702Z,16.66
2023-03-29T17:00:16.470Z,16.66
2023-03-29T17:02:44.201Z,16.66
2023-03-29T17:05:12.646Z,16.66
2023-03-29T17:07:40.225Z,16.66
2023-03-29T17:10:08.323Z,16.66
2023-03-29T17:12:35.564Z,16.65
2023-03-29T17:15:02.925Z,16.64
2023-03-29T17:17:29.734Z,16.66
2023-03-29T17:19:56.898Z,16.67
2023-03-29T17:22:24.291Z,16.67
2023-03-29T17:24:50.889Z,16.62
2023-03-29T17:27:18.278Z,16.62
2023-03-29T17:29:44.955Z,16.66
2023-03-29T17:32:11.566Z,16.63
2023-03-29T17:34:38.707Z,16.67
2023-03-29T17:37:05.459Z,16.69
2023-03-29T17:39:32.260Z,16.68
2023-03-29T17:41:58.854Z,16.68
2023-03-29T17:44:25.552Z,16.67
2023-03-29T17:46:52.246Z,16.70
2023-03-29T17:49:18.919Z,16.68
2023-03-29T17:51:46.278Z,16.69
2023-03-29T17:54:12.902Z,16.70
2023-03-29T17:56:39.592Z,16.68
2023-03-29T17:59:06.242Z,16.69
2023-03-29T18:01:33.076Z,16.63
2023-03-29T18:03:59.677Z,16.72
2023-03-29T18:06:26.603Z,16.72
2023-03-29T18:08:53.336Z,16.70
2023-03-29T18:11:22.921Z,16.70
2023-03-29T18:13:53.473Z,16.71
2023-03-29T18:16:22.009Z,16.72
2023-03-29T18:18:48.714Z,16.70
2023-03-29T18:21:16.571Z,16.70
2023-03-29T18:23:47.466Z,16.72
2023-03-29T18:26:15.849Z,16.69
2023-03-29T18:28:46.612Z,16.68
2023-03-29T18:31:14.164Z,16.72
2023-03-29T18:33:40.872Z,16.71
2023-03-29T18:36:11.954Z,16.73
2023-03-29T18:38:40.599Z,16.67
2023-03-29T18:41:08.647Z,16.70
2023-03-29T18:43:36.008Z,16.73
2023-03-29T18:46:03.261Z,16.72
2023-03-29T18:48:30.266Z,16.73
2023-03-29T18:50:57.294Z,16.73
2023-03-29T18:53:24.256Z,16.70
2023-03-29T18:55:50.941Z,16.72
2023-03-29T18:58:17.843Z,16.73
2023-03-29T19:00:44.570Z,16.69
2023-03-29T19:03:11.303Z,16.71
2023-03-29T19:05:39.489Z,16.73
2023-03-29T19:08:07.062Z,16.72
2023-03-29T19:10:38.086Z,16.74
2023-03-29T19:13:05.520Z,16.74
2023-03-29T19:15:33.902Z,16.73
2023-03-29T19:18:00.622Z,16.73
2023-03-29T19:20:27.459Z,16.69
2023-03-29T19:22:54.085Z,16.73
2023-03-29T19:25:20.790Z,16.72
2023-03-29T19:27:47.827Z,16.70
2023-03-29T19:30:15.167Z,16.74
2023-03-29T19:32:41.796Z,16.71
2023-03-29T19:35:09.656Z,16.72
2023-03-29T19:37:36.529Z,16.73
2023-03-29T19:40:06.524Z,16.71
2023-03-29T19:42:36.256Z,16.71
2023-03-29T19:45:04.063Z,16.73
2023-03-29T19:47:31.191Z,16.72
2023-03-29T19:49:58.747Z,16.74
2023-03-29T19:52:27.990Z,16.67
2023-03-29T19:54:56.022Z,16.74
2023-03-29T19:57:23.850Z,16.75
2023-03-29T19:59:50.969Z,16.72
2023-03-29T20:02:17.610Z,16.73
2023-03-29T20:04:44.314Z,16.72
2023-03-29T20:07:10.914Z,16.76
2023-03-29T20:09:37.761Z,16.74
2023-03-29T20:12:05.357Z,16.75
2023-03-29T20:14:32.154Z,16.73
2023-03-29T20:16:58.888Z,16.74
2023-03-29T20:19:25.541Z,16.70
2023-03-29T20:21:57.560Z,16.77
2023-03-29T20:24:25.120Z,16.77
2023-03-29T20:26:52.293Z,16.77
2023-03-29T20:29:19.103Z,16.76
2023-03-29T20:31:46.238Z,16.76
2023-03-29T20:34:13.063Z,16.77
2023-03-29T20:36:40.474Z,16.74
2023-03-29T20:39:08.223Z,16.78
2023-03-29T20:41:38.360Z,16.74
2023-03-29T20:44:05.697Z,16.74
2023-03-29T20:46:35.212Z,16.76
2023-03-29T20:49:08.885Z,16.76
2023-03-29T20:51:36.804Z,16.78
2023-03-29T20:54:06.114Z,16.75
2023-03-29T20:56:35.460Z,16.71
2023-03-29T20:59:02.917Z,16.74
2023-03-29T21:01:32.874Z,16.77
2023-03-29T21:03:59.451Z,16.74
2023-03-29T21:06:26.100Z,16.75
2023-03-29T21:08:53.200Z,16.74
2023-03-29T21:11:21.009Z,16.77
2023-03-29T21:13:47.753Z,16.75
2023-03-29T21:16:14.502Z,16.79
2023-03-29T21:18:41.665Z,16.78
2023-03-29T21:21:09.650Z,16.79
2023-03-29T21:23:36.655Z,16.77
2023-03-29T21:26:06.731Z,16.79
2023-03-29T21:28:34.033Z,16.73
2023-03-29T21:31:04.818Z,16.77
2023-03-29T21:33:31.767Z,16.76
2023-03-29T21:35:58.477Z,16.78
2023-03-29T21:38:25.279Z,16.74
2023-03-29T21:40:52.020Z,16.77
2023-03-29T21:43:18.597Z,16.77
2023-03-29T21:45:49.587Z,16.80
2023-03-29T21:48:17.367Z,16.81
2023-03-29T21:50:44.435Z,16.78
2023-03-29T21:53:11.132Z,16.77
2023-03-29T21:55:37.682Z,16.79
2023-03-29T21:58:04.702Z,16.80
2023-03-29T22:00:32.198Z,16.79
2023-03-29T22:02:58.977Z,16.73
2023-03-29T22:05:28.670Z,16.78
2023-03-29T22:07:58.738Z,16.77
2023-03-29T22:10:25.566Z,16.74
2023-03-29T22:12:52.608Z,16.78
2023-03-29T22:15:22.532Z,16.75
2023-03-29T22:17:49.319Z,16.73
2023-03-29T22:20:18.502Z,16.77
2023-03-29T22:22:49.771Z,16.78
2023-03-29T22:25:17.650Z,16.74
2023-03-29T22:27:45.634Z,16.78
2023-03-29T22:30:13.673Z,16.76
2023-03-29T22:32:41.138Z,16.74
2023-03-29T22:35:08.413Z,16.75
2023-03-29T22:37:41.235Z,16.74
2023-03-29T22:40:10.131Z,16.74
2023-03-29T22:42:36.951Z,16.73
2023-03-29T22:45:04.194Z,16.73
2023-03-29T22:47:30.754Z,16.76
2023-03-29T22:49:57.447Z,16.73
2023-03-29T22:52:24.023Z,16.75
2023-03-29T22:54:50.553Z,16.74
2023-03-29T22:57:17.186Z,16.72
2023-03-29T22:59:43.805Z,16.71
2023-03-29T23:02:10.513Z,16.72
2023-03-29T23:04:38.771Z,16.76
2023-03-29T23:07:06.492Z,16.76
2023-03-29T23:09:33.122Z,16.74
2023-03-29T23:12:01.167Z,16.74
2023-03-29T23:14:27.885Z,16.71
2023-03-29T23:16:54.424Z,16.74
2023-03-29T23:19:21.011Z,16.74
2023-03-29T23:21:47.564Z,16.74
2023-03-29T23:24:18.389Z,16.73
2023-03-29T23:26:45.623Z,16.74
2023-03-29T23:29:12.155Z,16.73
2023-03-29T23:31:38.794Z,16.73
2023-03-29T23:34:05.506Z,16.74
2023-03-29T23:36:32.121Z,16.74
2023-03-29T23:38:59.651Z,16.74
2023-03-29T23:41:28.299Z,16.73
2023-03-29T23:43:57.594Z,16.76
2023-03-29T23:46:24.639Z,16.74
2023-03-29T23:48:51.641Z,16.73
2023-03-29T23:51:22.606Z,16.71
2023-03-29T23:53:50.006Z,16.73
2023-03-29T23:56:16.589Z,16.72
2023-03-29T23:58:43.200Z,16.73
